Time;durP1;ratioP1;P1;durP2;ratioP2;P2;SDS_P1;SDS_P2;PMS_P1;PMS_P2;Temp;Humidity;BMP_temperature;BMP_pressure;BME280_temperature;BME280_humidity;BME280_pressure;Samples;Min_cycle;Max_cycle;Signal;HPM_P1;HPM_P2
2022/07/08 00:01:20;;;;;;;8.97;1.97;;;15.10;99.90;;;;;;5006915;28;20195;-73
2022/07/08 00:04:07;;;;;;;9.77;2.30;;;15.10;99.90;;;;;;5013432;28;20226;-74
2022/07/08 00:06:52;;;;;;;8.93;2.30;;;15.10;99.90;;;;;;5009132;28;20238;-73
2022/07/08 00:09:36;;;;;;;5.33;1.60;;;15.10;99.90;;;;;;5009566;28;20333;-73
2022/07/08 00:12:21;;;;;;;13.33;2.20;;;15.10;99.90;;;;;;5007080;28;20187;-71
2022/07/08 00:15:08;;;;;;;7.30;1.80;;;15.00;99.90;;;;;;5012726;28;20251;-72
2022/07/08 00:18:00;;;;;;;12.07;1.70;;;15.00;99.90;;;;;;5010785;28;20206;-74
2022/07/08 00:20:44;;;;;;;7.77;1.37;;;15.10;99.90;;;;;;5009694;28;20595;-73
2022/07/08 00:23:28;;;;;;;10.63;1.87;;;15.10;99.90;;;;;;5010263;28;20235;-74
2022/07/08 00:26:13;;;;;;;9.17;2.13;;;15.00;99.90;;;;;;5011929;28;20211;-72
2022/07/08 00:28:58;;;;;;;7.13;1.47;;;15.00;99.90;;;;;;5008944;28;20615;-73
2022/07/08 00:31:48;;;;;;;11.93;1.90;;;15.00;99.90;;;;;;5011427;28;20310;-72
2022/07/08 00:34:33;;;;;;;8.93;2.30;;;15.00;99.90;;;;;;5010694;28;20238;-72
2022/07/08 00:37:17;;;;;;;11.20;1.80;;;15.00;99.90;;;;;;5011406;28;20199;-72
2022/07/08 00:40:03;;;;;;;9.30;1.60;;;15.00;99.90;;;;;;5007166;28;20714;-72
2022/07/08 00:42:48;;;;;;;8.77;1.70;;;15.00;99.90;;;;;;5007204;28;20210;-73
2022/07/08 00:45:33;;;;;;;7.83;1.90;;;15.00;99.90;;;;;;5008914;28;20223;-74
2022/07/08 00:48:18;;;;;;;6.23;1.50;;;15.00;99.90;;;;;;5006682;28;20218;-73
2022/07/08 00:51:15;;;;;;;12.20;2.20;;;15.00;99.90;;;;;;5007922;28;20195;-74
2022/07/08 00:53:59;;;;;;;7.07;1.77;;;15.00;99.90;;;;;;5013786;28;20191;-75
2022/07/08 00:56:44;;;;;;;7.53;1.60;;;15.00;99.90;;;;;;5001500;28;20195;-73
2022/07/08 00:59:31;;;;;;;8.63;1.87;;;15.00;99.90;;;;;;5010242;28;20203;-72
2022/07/08 01:02:17;;;;;;;5.77;1.77;;;15.00;99.90;;;;;;5010295;28;20205;-73
2022/07/08 01:05:03;;;;;;;5.83;1.33;;;15.00;99.90;;;;;;5011735;28;20262;-72
2022/07/08 01:07:51;;;;;;;9.90;1.87;;;14.90;99.90;;;;;;5008536;28;20188;-72
2022/07/08 01:10:37;;;;;;;8.50;2.10;;;14.90;99.90;;;;;;5006087;28;20211;-72
2022/07/08 01:13:22;;;;;;;6.83;1.60;;;14.90;99.90;;;;;;5009131;28;20295;-73
2022/07/08 01:16:07;;;;;;;10.27;1.70;;;14.90;99.90;;;;;;5006864;28;20207;-74
2022/07/08 01:18:51;;;;;;;11.07;2.00;;;14.90;99.90;;;;;;5008988;28;20187;-74
2022/07/08 01:21:39;;;;;;;8.83;2.00;;;14.90;99.90;;;;;;5009446;28;20207;-74
2022/07/08 01:24:23;;;;;;;10.73;1.93;;;14.90;99.90;;;;;;5024128;28;20265;-72
2022/07/08 01:27:07;;;;;;;11.43;2.23;;;14.90;99.90;;;;;;5011875;28;20184;-74
2022/07/08 01:29:52;;;;;;;11.13;1.80;;;14.90;99.90;;;;;;5006583;28;20267;-70
2022/07/08 01:32:41;;;;;;;7.43;1.90;;;14.90;99.90;;;;;;5007279;28;20206;-72
2022/07/08 01:35:26;;;;;;;11.67;2.23;;;14.80;99.90;;;;;;5025545;28;20223;-74
2022/07/08 01:38:10;;;;;;;13.30;2.00;;;14.80;99.90;;;;;;5010649;28;20195;-73
2022/07/08 01:40:54;;;;;;;7.57;1.70;;;14.80;99.90;;;;;;5008705;28;20191;-72
2022/07/08 01:43:38;;;;;;;6.00;1.63;;;14.80;99.90;;;;;;5008295;28;20813;-73
2022/07/08 01:46:22;;;;;;;7.00;1.60;;;14.80;99.90;;;;;;5007285;28;20192;-73
2022/07/08 01:49:08;;;;;;;12.23;2.43;;;14.80;99.90;;;;;;5009603;28;20267;-73
2022/07/08 01:51:52;;;;;;;6.13;1.57;;;14.80;99.90;;;;;;5007574;28;20199;-74
2022/07/08 01:54:36;;;;;;;8.47;1.97;;;14.70;99.90;;;;;;5008554;28;20285;-72
2022/07/08 01:57:24;;;;;;;5.40;1.70;;;14.80;99.90;;;;;;5023100;28;20191;-73
2022/07/08 02:00:08;;;;;;;6.23;1.70;;;14.70;99.90;;;;;;5006723;28;20203;-72
2022/07/08 02:02:52;;;;;;;8.23;1.80;;;14.70;99.90;;;;;;5009478;28;20223;-73
2022/07/08 02:05:37;;;;;;;7.23;2.17;;;14.70;99.90;;;;;;5008635;28;20222;-73
2022/07/08 02:08:23;;;;;;;10.20;2.20;;;14.70;99.90;;;;;;5010387;28;20346;-73
2022/07/08 02:14:11;;;;;;;9.03;1.70;;;14.70;99.90;;;;;;5019796;28;20291;-73
2022/07/08 02:16:55;;;;;;;7.53;1.97;;;14.70;99.90;;;;;;5008386;28;20188;-73
2022/07/08 02:19:39;;;;;;;12.30;1.97;;;14.60;99.90;;;;;;5007579;28;20192;-74
2022/07/08 02:22:24;;;;;;;8.83;2.20;;;14.60;99.90;;;;;;5007414;28;20199;-73
2022/07/08 02:25:12;;;;;;;10.63;1.70;;;14.60;99.90;;;;;;5008560;28;20230;-75
2022/07/08 02:27:56;;;;;;;7.27;1.63;;;14.60;99.90;;;;;;5009391;28;20722;-74
2022/07/08 02:30:40;;;;;;;9.33;1.73;;;14.60;99.90;;;;;;5010935;28;20237;-75
2022/07/08 02:33:25;;;;;;;9.23;1.97;;;14.50;99.90;;;;;;5007082;28;20231;-72
2022/07/08 02:36:09;;;;;;;8.40;1.90;;;14.50;99.90;;;;;;5008587;28;20567;-73
2022/07/08 02:38:53;;;;;;;6.67;1.70;;;14.50;99.90;;;;;;5008461;28;20240;-73
2022/07/08 02:41:38;;;;;;;12.40;2.27;;;14.40;99.90;;;;;;5009205;28;20195;-75
2022/07/08 02:44:23;;;;;;;6.53;1.60;;;14.40;99.90;;;;;;5008738;28;20222;-74
2022/07/08 02:47:08;;;;;;;7.90;1.80;;;14.40;99.90;;;;;;5006747;28;20678;-72
2022/07/08 02:49:53;;;;;;;10.17;2.30;;;14.40;99.90;;;;;;5010677;28;20226;-73
2022/07/08 02:52:37;;;;;;;9.80;1.70;;;14.40;99.90;;;;;;5007607;28;20195;-76
2022/07/08 02:55:22;;;;;;;9.43;2.10;;;14.30;99.90;;;;;;5009707;28;20219;-73
2022/07/08 02:58:06;;;;;;;5.60;1.47;;;14.30;99.90;;;;;;5016571;28;20219;-74
2022/07/08 03:00:51;;;;;;;6.80;1.83;;;14.30;99.90;;;;;;5004718;28;20277;-73
2022/07/08 03:03:48;;;;;;;9.43;2.23;;;14.20;99.90;;;;;;5007840;28;20211;-72
2022/07/08 03:06:39;;;;;;;9.27;1.47;;;14.20;99.90;;;;;;5003795;28;20234;-72
2022/07/08 03:09:27;;;;;;;8.50;1.70;;;14.20;99.90;;;;;;5019638;28;20188;-72
2022/07/08 03:12:11;;;;;;;7.53;1.40;;;14.20;99.90;;;;;;5005038;28;20210;-73
2022/07/08 03:15:02;;;;;;;10.03;2.10;;;14.10;99.90;;;;;;5008131;28;20243;-73
2022/07/08 03:17:46;;;;;;;6.20;1.70;;;14.20;99.90;;;;;;5007009;28;20203;-72
2022/07/08 03:20:34;;;;;;;9.00;1.80;;;14.10;99.90;;;;;;5007516;28;20887;-74
2022/07/08 03:23:22;;;;;;;5.83;1.60;;;14.10;99.90;;;;;;5007161;28;20199;-74
2022/07/08 03:26:07;;;;;;;9.43;2.27;;;14.10;99.90;;;;;;5005436;28;20211;-74
2022/07/08 03:28:51;;;;;;;10.27;2.27;;;14.10;99.90;;;;;;5007437;28;20565;-73
2022/07/08 03:31:35;;;;;;;8.50;2.10;;;14.10;99.90;;;;;;5005919;28;20184;-74
2022/07/08 03:34:20;;;;;;;11.40;1.93;;;14.10;99.90;;;;;;5011175;28;20274;-73
2022/07/08 03:37:04;;;;;;;7.80;1.87;;;14.10;99.90;;;;;;5011934;28;20199;-74
2022/07/08 03:39:50;;;;;;;4.27;1.43;;;14.10;99.90;;;;;;5011165;28;20203;-74
2022/07/08 03:42:34;;;;;;;6.77;1.70;;;14.10;99.90;;;;;;5013399;28;20226;-76
2022/07/08 03:45:19;;;;;;;9.10;1.90;;;14.10;99.90;;;;;;5009521;28;20345;-73
2022/07/08 03:48:04;;;;;;;8.37;1.67;;;14.10;99.90;;;;;;5012713;28;20310;-73
2022/07/08 03:50:48;;;;;;;11.07;1.83;;;14.10;99.90;;;;;;5011328;28;20202;-73
2022/07/08 03:53:32;;;;;;;10.17;2.47;;;14.10;99.90;;;;;;5009935;28;20195;-74
2022/07/08 03:56:16;;;;;;;8.30;1.47;;;14.10;99.90;;;;;;5024844;28;20211;-74
2022/07/08 03:59:01;;;;;;;5.13;1.43;;;14.00;99.90;;;;;;5011436;28;20218;-73
2022/07/08 04:01:45;;;;;;;6.63;1.90;;;14.00;99.90;;;;;;5013577;28;20655;-74
2022/07/08 04:04:29;;;;;;;11.27;2.40;;;14.00;99.90;;;;;;5007295;28;20227;-74
2022/07/08 04:07:13;;;;;;;6.33;1.53;;;14.00;99.90;;;;;;5026937;28;20179;-73
2022/07/08 04:09:58;;;;;;;7.43;1.80;;;14.00;99.90;;;;;;5010682;28;20202;-74
2022/07/08 04:12:42;;;;;;;4.63;1.60;;;14.00;99.90;;;;;;5007612;28;20191;-75
2022/07/08 04:15:30;;;;;;;11.33;2.27;;;13.90;99.90;;;;;;5007957;28;20261;-73
2022/07/08 04:18:14;;;;;;;6.70;1.60;;;13.90;99.90;;;;;;5011056;28;20179;-73
2022/07/08 04:20:58;;;;;;;4.50;1.40;;;13.90;99.90;;;;;;5009423;28;20605;-73
2022/07/08 04:23:42;;;;;;;8.63;1.90;;;13.90;99.90;;;;;;5010375;28;20223;-73
2022/07/08 04:26:31;;;;;;;7.90;1.83;;;13.90;99.90;;;;;;5008331;28;20194;-73
2022/07/08 04:29:15;;;;;;;6.37;1.97;;;13.90;99.90;;;;;;5010034;28;20183;-74
2022/07/08 04:31:59;;;;;;;11.13;1.70;;;13.90;99.90;;;;;;5007862;28;20195;-74
2022/07/08 04:34:43;;;;;;;7.73;1.57;;;13.90;99.90;;;;;;5007521;28;20265;-74
2022/07/08 04:37:28;;;;;;;6.43;1.90;;;13.90;99.90;;;;;;5013534;28;20553;-74
2022/07/08 04:40:13;;;;;;;8.70;2.00;;;13.90;99.90;;;;;;5009641;28;20268;-73
2022/07/08 04:42:57;;;;;;;7.20;1.80;;;13.90;99.90;;;;;;5009823;28;20274;-73
2022/07/08 04:45:41;;;;;;;10.57;2.20;;;13.90;99.90;;;;;;5006211;28;20246;-74
2022/07/08 04:48:25;;;;;;;8.67;2.73;;;14.00;99.90;;;;;;5021262;28;20223;-73
2022/07/08 04:51:09;;;;;;;6.73;2.07;;;14.00;99.90;;;;;;5010239;28;20247;-73
2022/07/08 04:53:53;;;;;;;7.00;1.77;;;14.00;99.90;;;;;;5009102;28;20255;-74
2022/07/08 04:56:37;;;;;;;6.47;1.60;;;14.00;99.90;;;;;;5008717;28;20664;-72
2022/07/08 04:59:21;;;;;;;10.60;1.77;;;14.10;99.90;;;;;;5024627;28;20253;-72
2022/07/08 05:02:05;;;;;;;5.53;1.67;;;14.10;99.90;;;;;;5008459;28;20330;-73
2022/07/08 05:04:49;;;;;;;7.43;2.00;;;14.20;99.90;;;;;;5008595;28;20215;-75
2022/07/08 05:07:34;;;;;;;6.53;1.80;;;14.30;99.90;;;;;;5011045;28;20188;-73
2022/07/08 05:10:22;;;;;;;9.27;2.00;;;14.30;99.90;;;;;;5008676;28;20675;-73
2022/07/08 05:13:07;;;;;;;10.23;1.80;;;14.40;99.90;;;;;;5009480;28;20370;-74
2022/07/08 05:15:51;;;;;;;7.10;1.93;;;14.40;99.90;;;;;;5009885;28;20784;-73
2022/07/08 05:18:35;;;;;;;8.37;1.70;;;14.50;99.90;;;;;;5007334;28;20246;-73
2022/07/08 05:21:20;;;;;;;8.00;1.60;;;14.60;99.90;;;;;;5008234;28;20191;-75
2022/07/08 05:24:05;;;;;;;6.63;1.50;;;14.60;99.90;;;;;;5025868;28;20243;-73
2022/07/08 05:26:49;;;;;;;9.93;2.03;;;14.70;99.90;;;;;;5007961;28;20203;-74
2022/07/08 05:29:33;;;;;;;8.17;2.10;;;14.80;99.90;;;;;;5011713;28;20190;-73
2022/07/08 05:32:18;;;;;;;5.40;1.60;;;14.70;99.90;;;;;;5007957;28;20242;-73
2022/07/08 05:35:04;;;;;;;6.17;1.80;;;14.80;99.90;;;;;;5012493;28;20342;-74
2022/07/08 05:37:49;;;;;;;7.53;1.70;;;14.70;99.90;;;;;;5010297;28;20199;-74
2022/07/08 05:40:33;;;;;;;10.10;1.90;;;14.80;99.90;;;;;;5018859;28;20191;-74
2022/07/08 05:43:17;;;;;;;7.20;1.57;;;14.80;99.90;;;;;;5010442;28;20207;-74
2022/07/08 05:46:01;;;;;;;12.10;2.70;;;14.80;99.90;;;;;;5006754;28;20215;-75
2022/07/08 05:48:45;;;;;;;15.57;2.20;;;14.90;99.90;;;;;;5010294;28;20211;-73
2022/07/08 05:51:29;;;;;;;9.50;1.87;;;15.00;99.90;;;;;;5009874;28;20222;-75
2022/07/08 05:54:13;;;;;;;7.27;2.00;;;15.00;99.90;;;;;;5023588;28;20215;-74
2022/07/08 05:56:58;;;;;;;16.03;3.00;;;15.00;99.90;;;;;;5008102;28;20258;-73
2022/07/08 05:59:43;;;;;;;16.53;2.70;;;15.10;99.90;;;;;;5007516;28;20191;-74
2022/07/08 06:02:27;;;;;;;11.77;1.83;;;15.20;99.90;;;;;;5009448;28;20318;-74
2022/07/08 06:05:12;;;;;;;7.20;1.87;;;15.20;99.90;;;;;;5005023;28;20234;-74
2022/07/08 06:07:57;;;;;;;9.77;2.07;;;15.30;99.90;;;;;;5008591;28;20231;-75
2022/07/08 06:10:41;;;;;;;10.53;2.20;;;15.30;99.90;;;;;;5007787;28;20182;-73
2022/07/08 06:13:26;;;;;;;12.90;1.70;;;15.30;99.90;;;;;;5006888;28;20183;-75
2022/07/08 06:16:10;;;;;;;8.67;1.57;;;15.40;99.90;;;;;;5010943;28;20192;-74
2022/07/08 06:18:54;;;;;;;7.97;1.70;;;15.50;99.90;;;;;;5008971;28;20208;-75
2022/07/08 06:21:38;;;;;;;5.73;1.53;;;15.50;99.90;;;;;;5007362;28;20258;-73
2022/07/08 06:24:23;;;;;;;7.07;2.03;;;15.50;99.90;;;;;;5007164;28;20250;-72
2022/07/08 06:27:07;;;;;;;8.03;1.93;;;15.50;99.90;;;;;;5007137;28;20354;-74
2022/07/08 06:29:51;;;;;;;10.23;1.73;;;15.60;99.90;;;;;;5008911;28;20191;-74
2022/07/08 06:32:36;;;;;;;7.67;1.70;;;15.70;99.90;;;;;;5008944;28;20270;-74
2022/07/08 06:35:21;;;;;;;6.67;1.47;;;15.70;99.90;;;;;;4990838;28;20224;-72
2022/07/08 06:38:05;;;;;;;7.20;1.80;;;15.80;99.90;;;;;;5008435;28;20660;-74
2022/07/08 06:40:49;;;;;;;8.70;1.90;;;15.80;99.90;;;;;;5004002;28;20203;-75
2022/07/08 06:43:33;;;;;;;12.10;1.63;;;15.80;99.90;;;;;;4998242;28;20215;-74
2022/07/08 06:46:17;;;;;;;4.13;1.27;;;16.00;99.90;;;;;;5001877;28;20227;-74
2022/07/08 06:49:02;;;;;;;8.30;2.23;;;16.00;99.90;;;;;;5000372;28;20180;-74
2022/07/08 06:51:46;;;;;;;8.37;1.20;;;16.00;99.90;;;;;;5021318;28;20195;-73
2022/07/08 06:54:35;;;;;;;7.10;1.60;;;16.10;99.90;;;;;;5022511;28;20222;-74
2022/07/08 06:57:21;;;;;;;7.13;1.50;;;16.10;99.90;;;;;;5005350;28;20299;-73
2022/07/08 07:00:06;;;;;;;8.87;1.50;;;16.20;99.90;;;;;;5003618;28;20253;-74
2022/07/08 07:02:51;;;;;;;6.30;1.20;;;16.30;99.90;;;;;;5020278;28;20247;-74
2022/07/08 07:05:35;;;;;;;12.80;2.17;;;16.30;99.90;;;;;;5005754;28;20573;-74
2022/07/08 07:08:19;;;;;;;8.23;1.40;;;16.30;99.90;;;;;;5005725;28;20191;-74
2022/07/08 07:11:03;;;;;;;6.57;1.37;;;16.30;99.90;;;;;;5019807;28;20258;-73
2022/07/08 07:13:47;;;;;;;9.03;1.53;;;16.30;99.90;;;;;;5020084;28;20351;-74
2022/07/08 07:16:32;;;;;;;7.87;1.77;;;16.30;99.90;;;;;;5005455;28;20675;-74
2022/07/08 07:19:16;;;;;;;11.63;1.80;;;16.40;99.90;;;;;;5022613;28;20191;-73
2022/07/08 07:22:00;;;;;;;6.63;1.50;;;16.40;99.90;;;;;;4999362;28;20195;-73
2022/07/08 07:24:44;;;;;;;6.27;1.17;;;16.50;99.90;;;;;;5020657;28;20297;-73
2022/07/08 07:27:28;;;;;;;9.37;1.47;;;16.50;99.90;;;;;;5020467;28;20215;-73
2022/07/08 07:30:12;;;;;;;25.40;3.83;;;16.50;99.90;;;;;;5003631;28;20195;-74
2022/07/08 07:32:57;;;;;;;13.00;2.23;;;16.50;99.90;;;;;;5019807;28;20196;-72
2022/07/08 07:35:41;;;;;;;6.93;1.50;;;16.60;99.90;;;;;;5003771;28;20273;-73
2022/07/08 07:38:25;;;;;;;8.33;1.50;;;16.60;99.90;;;;;;5008747;28;20187;-72
2022/07/08 07:41:09;;;;;;;8.27;1.60;;;16.70;99.90;;;;;;5007047;28;20198;-72
2022/07/08 07:43:53;;;;;;;7.23;1.80;;;16.70;99.90;;;;;;5018493;28;20262;-72
2022/07/08 07:46:37;;;;;;;6.73;1.33;;;16.70;99.90;;;;;;5019113;28;20191;-72
2022/07/08 07:49:21;;;;;;;12.47;1.87;;;16.70;99.90;;;;;;5005650;28;20176;-72
2022/07/08 07:52:06;;;;;;;17.37;3.50;;;16.70;99.90;;;;;;5023682;28;20246;-72
2022/07/08 07:54:50;;;;;;;28.57;3.93;;;16.70;99.90;;;;;;5020910;28;20258;-72
2022/07/08 07:57:35;;;;;;;10.47;1.70;;;16.70;99.90;;;;;;5022195;28;20255;-72
2022/07/08 08:00:19;;;;;;;7.77;1.67;;;16.70;99.90;;;;;;5008330;28;20188;-72
2022/07/08 08:03:03;;;;;;;13.43;2.70;;;16.70;99.90;;;;;;5023132;28;20566;-72
2022/07/08 08:05:48;;;;;;;26.77;4.10;;;16.70;99.90;;;;;;5017273;28;20218;-72
2022/07/08 08:08:32;;;;;;;5.83;1.37;;;16.70;99.90;;;;;;5023726;28;20250;-72
2022/07/08 08:11:16;;;;;;;8.03;1.60;;;16.70;99.90;;;;;;5024496;28;20191;-72
2022/07/08 08:14:00;;;;;;;6.10;1.70;;;16.70;99.90;;;;;;5019838;28;20219;-72
2022/07/08 08:16:44;;;;;;;6.13;1.23;;;16.70;99.90;;;;;;5010134;28;20242;-71
2022/07/08 08:19:28;;;;;;;11.93;2.20;;;16.80;99.90;;;;;;5020930;28;20206;-73
2022/07/08 08:22:12;;;;;;;5.57;1.70;;;16.80;99.90;;;;;;5011188;28;20187;-72
2022/07/08 08:24:56;;;;;;;9.63;1.67;;;16.80;99.90;;;;;;5011719;28;20223;-71
2022/07/08 08:27:40;;;;;;;7.17;1.50;;;16.80;99.90;;;;;;5026641;28;20195;-72
2022/07/08 08:30:25;;;;;;;9.93;1.73;;;16.80;99.90;;;;;;5010755;28;20242;-72
2022/07/08 08:33:09;;;;;;;8.37;1.63;;;16.70;99.90;;;;;;5011707;28;20238;-73
2022/07/08 08:35:53;;;;;;;9.93;2.03;;;16.80;99.90;;;;;;5022050;28;20227;-72
2022/07/08 08:38:37;;;;;;;6.40;1.77;;;16.80;99.90;;;;;;5009661;28;20274;-74
2022/07/08 08:41:22;;;;;;;9.67;1.60;;;16.80;99.90;;;;;;5005603;28;20219;-72
2022/07/08 08:44:07;;;;;;;78.13;9.30;;;16.90;99.90;;;;;;5028157;28;20222;-72
2022/07/08 08:46:53;;;;;;;18.73;2.83;;;16.90;99.90;;;;;;5024813;28;20261;-72
2022/07/08 08:49:37;;;;;;;7.53;1.93;;;16.90;99.90;;;;;;5008571;28;20199;-73
2022/07/08 08:52:23;;;;;;;11.13;1.80;;;16.90;99.90;;;;;;5009601;28;20207;-73
2022/07/08 08:55:09;;;;;;;9.00;1.40;;;16.90;99.90;;;;;;5009391;28;20273;-72
2022/07/08 08:57:59;;;;;;;16.00;2.20;;;17.00;99.90;;;;;;5010135;28;20547;-72
2022/07/08 09:00:44;;;;;;;10.50;2.20;;;17.10;99.90;;;;;;5026116;28;20242;-72
2022/07/08 09:03:28;;;;;;;12.50;1.93;;;17.10;99.90;;;;;;5021653;28;20211;-74
2022/07/08 09:06:13;;;;;;;7.90;1.90;;;17.20;99.90;;;;;;5025096;28;20212;-74
2022/07/08 09:08:57;;;;;;;4.07;1.63;;;17.40;99.90;;;;;;5007399;28;20250;-74
2022/07/08 09:11:43;;;;;;;9.67;2.63;;;17.40;99.90;;;;;;5009246;28;20315;-74
2022/07/08 09:14:27;;;;;;;8.80;2.00;;;17.50;99.90;;;;;;5021928;28;20277;-74
2022/07/08 09:17:17;;;;;;;7.40;1.90;;;17.50;99.90;;;;;;5008231;28;20223;-74
2022/07/08 09:20:01;;;;;;;10.63;2.07;;;17.60;99.90;;;;;;5008654;28;20192;-74
2022/07/08 09:22:45;;;;;;;12.83;1.80;;;17.60;99.90;;;;;;5010588;28;20229;-74
2022/07/08 09:25:31;;;;;;;11.33;1.90;;;17.60;99.90;;;;;;5011730;28;20242;-75
2022/07/08 09:28:39;;;;;;;10.10;2.13;;;17.60;99.90;;;;;;5009131;28;20238;-74
2022/07/08 09:31:23;;;;;;;10.20;1.83;;;17.70;99.90;;;;;;5005300;28;20663;-74
2022/07/08 09:34:10;;;;;;;8.30;2.20;;;17.70;99.90;;;;;;5009852;28;20265;-74
2022/07/08 09:36:54;;;;;;;7.90;2.00;;;17.70;99.90;;;;;;5011995;28;20254;-74
2022/07/08 09:39:39;;;;;;;10.93;1.90;;;17.90;99.90;;;;;;5009528;28;20195;-75
2022/07/08 09:42:23;;;;;;;10.40;1.90;;;17.90;99.90;;;;;;5008711;28;20190;-74
2022/07/08 09:45:09;;;;;;;9.20;1.87;;;17.90;99.90;;;;;;5025141;28;20710;-74
2022/07/08 09:48:01;;;;;;;6.97;1.60;;;18.00;99.90;;;;;;5008588;28;20179;-74
2022/07/08 09:50:48;;;;;;;9.47;1.50;;;18.00;99.90;;;;;;5007317;28;20206;-74
2022/07/08 09:53:33;;;;;;;10.20;1.93;;;18.00;99.90;;;;;;5022320;28;20300;-74
2022/07/08 09:56:25;;;;;;;9.07;2.13;;;18.10;99.90;;;;;;5007962;28;20191;-74
2022/07/08 09:59:09;;;;;;;8.30;1.80;;;18.10;99.90;;;;;;5007330;28;20227;-74
2022/07/08 10:01:54;;;;;;;7.43;2.17;;;18.10;99.90;;;;;;5007189;28;20188;-74
2022/07/08 10:04:42;;;;;;;6.53;1.70;;;18.20;99.90;;;;;;5022982;28;20238;-74
2022/07/08 10:07:26;;;;;;;7.23;2.10;;;18.20;99.90;;;;;;5008998;28;20195;-74
2022/07/08 10:10:10;;;;;;;9.67;1.90;;;18.30;99.90;;;;;;5005005;28;20657;-74
2022/07/08 10:12:58;;;;;;;9.17;2.00;;;18.30;99.90;;;;;;5006848;28;20199;-75
2022/07/08 10:15:43;;;;;;;12.87;1.90;;;18.30;99.90;;;;;;5007919;28;20262;-75
2022/07/08 10:18:40;;;;;;;6.03;1.80;;;18.30;99.90;;;;;;5008012;28;20203;-75
2022/07/08 10:21:26;;;;;;;5.28;2.22;;;18.20;99.90;;;;;;5003749;28;20195;-74
2022/07/08 10:24:17;;;;;;;10.83;2.83;;;18.20;99.90;;;;;;5006295;28;20412;-74
2022/07/08 10:27:02;;;;;;;6.60;1.80;;;18.20;99.90;;;;;;5008152;28;20194;-73
2022/07/08 10:29:49;;;;;;;7.93;2.30;;;18.20;99.90;;;;;;5008545;28;20194;-74
2022/07/08 10:32:37;;;;;;;6.18;1.73;;;18.10;99.90;;;;;;5004655;28;20749;-74
2022/07/08 10:35:22;;;;;;;6.78;2.30;;;18.10;99.90;;;;;;5008390;28;20222;-74
2022/07/08 10:38:06;;;;;;;8.60;2.17;;;18.10;99.90;;;;;;5025073;28;20231;-74
2022/07/08 10:40:50;;;;;;;4.63;2.13;;;18.10;99.90;;;;;;5005599;28;20210;-74
2022/07/08 10:43:36;;;;;;;6.50;2.27;;;18.20;99.90;;;;;;5010581;28;20221;-74
2022/07/08 10:46:24;;;;;;;12.83;2.40;;;18.20;99.90;;;;;;5006558;28;20210;-75
2022/07/08 10:49:12;;;;;;;5.33;2.07;;;18.30;99.90;;;;;;5009017;28;20195;-75
2022/07/08 10:52:03;;;;;;;9.03;1.80;;;18.30;99.90;;;;;;5008568;28;20191;-74
2022/07/08 10:54:47;;;;;;;14.63;2.43;;;18.30;99.90;;;;;;5008484;28;20231;-74
2022/07/08 10:57:33;;;;;;;9.93;2.47;;;18.30;99.90;;;;;;5005299;28;20323;-75
2022/07/08 11:00:17;;;;;;;8.23;2.33;;;18.40;99.90;;;;;;5007045;28;20179;-74
2022/07/08 11:03:03;;;;;;;10.88;2.35;;;18.50;99.90;;;;;;5006904;28;20254;-75
2022/07/08 11:05:55;;;;;;;5.00;1.87;;;18.50;99.90;;;;;;5008558;28;20278;-74
2022/07/08 11:08:59;;;;;;;8.87;2.60;;;18.50;99.90;;;;;;5009439;28;20191;-74
2022/07/08 11:11:46;;;;;;;6.23;1.90;;;18.50;99.90;;;;;;5009188;28;20210;-74
2022/07/08 11:14:33;;;;;;;8.40;2.00;;;18.50;99.90;;;;;;5009398;28;20318;-74
2022/07/08 11:17:29;;;;;;;6.33;2.73;;;18.50;99.90;;;;;;5001276;28;20183;-73
2022/07/08 11:20:15;;;;;;;4.25;1.58;;;18.60;99.90;;;;;;5005816;28;20275;-73
2022/07/08 11:23:05;;;;;;;5.60;1.60;;;18.60;99.90;;;;;;5008956;28;20211;-73
2022/07/08 11:25:55;;;;;;;5.43;1.60;;;18.60;99.90;;;;;;5004602;28;20726;-75
2022/07/08 11:28:39;;;;;;;4.57;1.88;;;18.60;99.90;;;;;;5007467;28;20254;-73
2022/07/08 11:31:28;;;;;;;7.70;1.63;;;18.70;99.90;;;;;;5005281;28;20183;-74
2022/07/08 11:34:19;;;;;;;4.10;1.80;;;18.70;99.90;;;;;;5008074;28;20214;-74
2022/07/08 11:37:04;;;;;;;8.27;2.13;;;18.70;99.90;;;;;;5004776;28;20214;-76
2022/07/08 11:39:49;;;;;;;5.90;1.90;;;18.70;99.90;;;;;;5006675;28;20202;-74
2022/07/08 11:42:37;;;;;;;4.17;1.90;;;18.80;99.90;;;;;;5004542;28;20219;-74
2022/07/08 11:45:21;;;;;;;10.20;2.20;;;18.90;99.90;;;;;;5012304;28;20211;-74
2022/07/08 11:48:06;;;;;;;7.28;2.40;;;18.90;99.90;;;;;;5005385;28;20202;-74
2022/07/08 11:50:52;;;;;;;12.75;2.25;;;18.90;99.90;;;;;;5004388;28;20656;-74
2022/07/08 11:53:36;;;;;;;4.18;1.90;;;19.00;99.90;;;;;;5009916;28;20207;-76
2022/07/08 11:56:21;;;;;;;6.65;1.90;;;19.00;99.90;;;;;;5006267;28;20250;-74
2022/07/08 11:59:05;;;;;;;5.25;1.90;;;19.00;99.90;;;;;;5012438;28;20574;-74
2022/07/08 12:01:54;;;;;;;4.20;1.63;;;19.10;99.90;;;;;;5008902;28;20195;-74
2022/07/08 12:04:42;;;;;;;8.23;2.20;;;19.20;99.90;;;;;;5012855;28;20230;-74
2022/07/08 12:07:28;;;;;;;6.32;1.95;;;19.20;99.90;;;;;;5010593;28;20671;-74
2022/07/08 12:10:21;;;;;;;5.55;1.60;;;19.30;99.90;;;;;;5010132;28;20674;-74
2022/07/08 12:13:05;;;;;;;6.70;1.90;;;19.30;99.90;;;;;;5011900;28;20195;-75
2022/07/08 12:15:49;;;;;;;5.55;1.92;;;19.20;99.90;;;;;;5008307;28;20219;-75
2022/07/08 12:18:36;;;;;;;5.43;1.85;;;19.30;99.90;;;;;;5011372;28;20186;-74
2022/07/08 12:21:20;;;;;;;6.35;2.38;;;19.30;99.90;;;;;;5008513;28;20191;-75
2022/07/08 12:24:06;;;;;;;4.70;2.00;;;19.40;99.90;;;;;;5011336;28;20230;-74
2022/07/08 12:26:58;;;;;;;4.05;1.90;;;19.40;99.90;;;;;;5007399;28;20758;-76
2022/07/08 12:29:43;;;;;;;4.53;1.60;;;19.40;99.90;;;;;;5013480;28;20241;-74
2022/07/08 12:32:36;;;;;;;6.57;1.98;;;19.50;99.90;;;;;;5010355;28;20282;-74
2022/07/08 12:35:29;;;;;;;6.28;2.00;;;19.50;99.90;;;;;;5009435;28;20355;-73
2022/07/08 12:38:13;;;;;;;6.35;1.85;;;19.60;99.90;;;;;;5011086;28;20191;-73
2022/07/08 12:40:57;;;;;;;8.45;2.05;;;19.60;99.90;;;;;;5010321;28;20187;-72
2022/07/08 12:43:41;;;;;;;8.18;2.17;;;19.70;99.90;;;;;;5008568;28;20206;-73
2022/07/08 12:46:28;;;;;;;4.00;1.80;;;19.80;99.90;;;;;;5011509;28;20283;-72
2022/07/08 12:49:22;;;;;;;6.65;2.15;;;19.90;99.90;;;;;;5010781;28;20187;-73
2022/07/08 12:52:09;;;;;;;10.30;2.03;;;20.00;99.90;;;;;;5009223;28;20187;-73
2022/07/08 12:54:53;;;;;;;9.18;2.25;;;20.00;99.90;;;;;;5010876;28;20785;-72
2022/07/08 12:57:37;;;;;;;4.78;1.80;;;20.00;99.90;;;;;;5024606;28;20196;-72
2022/07/08 13:00:21;;;;;;;5.75;1.65;;;20.00;99.90;;;;;;5024003;28;20267;-72
2022/07/08 13:03:05;;;;;;;5.70;1.92;;;20.10;99.90;;;;;;5011652;28;20305;-72
2022/07/08 13:05:49;;;;;;;10.52;2.15;;;20.10;99.90;;;;;;5009971;28;20299;-73
2022/07/08 13:08:33;;;;;;;10.52;2.30;;;20.20;99.90;;;;;;5012552;28;20191;-74
2022/07/08 13:11:17;;;;;;;5.88;1.90;;;20.20;99.90;;;;;;5025201;28;20183;-73
2022/07/08 13:14:01;;;;;;;8.18;2.40;;;20.30;99.90;;;;;;5008993;28;20195;-73
2022/07/08 13:16:46;;;;;;;7.57;1.90;;;20.40;99.90;;;;;;5008991;28;20628;-72
2022/07/08 13:19:30;;;;;;;7.25;1.75;;;20.50;99.90;;;;;;5021126;28;20207;-72
2022/07/08 13:22:14;;;;;;;7.45;2.17;;;20.60;99.90;;;;;;5025113;28;20237;-73
2022/07/08 13:24:58;;;;;;;5.00;1.80;;;20.70;99.90;;;;;;5022729;28;20262;-73
2022/07/08 13:27:44;;;;;;;4.20;1.70;;;20.80;99.90;;;;;;5010190;28;20238;-73
2022/07/08 13:30:29;;;;;;;11.70;2.20;;;20.80;99.90;;;;;;5008550;28;20215;-73
2022/07/08 13:33:13;;;;;;;7.88;1.83;;;20.80;99.90;;;;;;5007530;28;20215;-73
2022/07/08 13:35:57;;;;;;;8.77;2.10;;;20.90;99.90;;;;;;5005620;28;20222;-73
2022/07/08 13:38:42;;;;;;;4.78;1.98;;;20.90;99.90;;;;;;5025650;28;20291;-73
2022/07/08 13:41:32;;;;;;;5.88;1.80;;;20.90;99.90;;;;;;5024095;28;20187;-72
2022/07/08 13:44:16;;;;;;;5.80;1.52;;;20.90;99.90;;;;;;5022334;28;20312;-73
2022/07/08 13:47:00;;;;;;;4.10;1.70;;;21.00;99.90;;;;;;5008043;28;20195;-74
2022/07/08 13:49:44;;;;;;;4.75;1.60;;;21.10;99.90;;;;;;5022895;28;20246;-73
2022/07/08 13:52:28;;;;;;;4.60;1.75;;;21.10;99.90;;;;;;5009118;28;20187;-73
2022/07/08 13:55:12;;;;;;;7.60;1.70;;;21.10;99.90;;;;;;5008076;28;20245;-73
2022/07/08 13:57:57;;;;;;;6.30;1.60;;;21.20;99.90;;;;;;5019900;28;20233;-72
2022/07/08 14:00:41;;;;;;;5.32;1.67;;;21.20;99.90;;;;;;5009078;28;20226;-73
2022/07/08 14:03:25;;;;;;;3.97;1.60;;;21.20;99.90;;;;;;5002655;28;20291;-72
2022/07/08 14:06:09;;;;;;;5.03;1.75;;;21.20;99.90;;;;;;5019594;28;20215;-75
2022/07/08 14:08:54;;;;;;;7.88;1.55;;;21.30;99.90;;;;;;5021655;28;20194;-75
2022/07/08 14:11:38;;;;;;;6.45;1.63;;;21.30;99.90;;;;;;5017645;28;20207;-75
2022/07/08 14:14:22;;;;;;;7.00;1.40;;;21.30;99.90;;;;;;5023523;28;20286;-78
2022/07/08 14:17:06;;;;;;;5.35;1.48;;;21.40;99.90;;;;;;5008411;28;20226;-75
2022/07/08 14:19:50;;;;;;;10.18;1.77;;;21.50;99.90;;;;;;5017250;28;20577;-75
2022/07/08 14:22:35;;;;;;;8.15;1.90;;;21.50;99.90;;;;;;5023519;28;20214;-74